Tiempo atmosférico en la estación meteorológica de Alcázar Del Rey, Cuenca (875 m.)

Fecha
DESCASC
Temp. máxima en grados centígrados (hora)
DESCASC
Temp. mínima en grados centígrados (hora)
DESCASC
Temp. media en grados centígrados
DESCASC
Racha de viento máxima en m/sg (hora)
DESCASC
Velocidad máxima media en intervalos de 10 minutos(hora)
DESCASC
Precipitaciones diarias en mm
DESCASC
Precipitaciones de 00:00 a 06:00 en mm
DESCASC
Precipitaciones de 06:00 a 12:00 en mm
DESCASC
Precipitaciones de 12:00 a 18:00 en mm
DESCASC
Precipitaciones de 18:00 a 24:00 en mm
DESCASC
10-12-2017 9.5 (15:30) 7 (02:10) 8.3 13.33 (21:30) 7.78 (20:00) 0 0 0 0 0
09-12-2017 10.8 (15:50) 4.8 (08:50) 7.8 8.06 (22:40) 3.06 (22:30) 0.2 0.2 0 0 0
08-12-2017 9.4 (16:10) -1.1 (08:20) 4.1 5.83 (13:10) 3.33 (13:40) 0 0 0 0 0
07-12-2017 10.3 (15:20) -4.1 (-00:0) 3.1 3.33 (10:10) 2.22 (10:50) 0 0 0 0 0
06-12-2017 11.7 (16:20) -4.3 (-00:0) 3.7 4.72 (06:10) 3.33 (05:40) 0 0 0 0 0
05-12-2017 11.9 (16:10) -4.7 (-00:0) 3.6 5 (10:00) 3.33 (09:40) 0 0 0 0 0
04-12-2017 9.8 (15:50) -3 (-00:0) 3.4 6.11 (08:50) 4.17 (08:50) 0 0 0 0 0
03-12-2017 6.5 (15:50) -4.2 (-00:0) 1.2 9.44 (12:40) 5.28 (12:40) 0 0 0 0 0
02-12-2017 5 (14:50) -4.1 (-00:0) 0.5 11.11 (14:40) 5.83 (13:50) 0.2 0 0.2 0 0
01-12-2017 5.4 (13:40) -3.1 (-00:0) 1.2 11.94 (13:50) 7.22 (13:50) 0.6 0 0 0.6 0
30-11-2017 7.1 (15:40) -1.7 (-00:0) 2.7 13.61 (11:30) 7.22 (11:20) 0.6 0 0.2 0.4 0
29-11-2017 10.1 (15:30) 1.1 (00:00) 5.6 8.33 (15:20) 5 (15:00) 1.6 1 0.6 0 0
28-11-2017 9.3 (13:30) 0.1 (00:00) 4.7 5 (13:00) 2.5 (14:10) 7.4 0 0 2.2 5.2
27-11-2017 12.3 (16:20) -3.8 (-00:0) 4.3 7.22 (00:10) 4.44 (00:50) 0 0 0 0 0
26-11-2017 11.8 (15:50) -0.2 (00:00) 5.8 10.83 (07:30) 6.39 (01:00) 0 0 0 0 0
25-11-2017 14.5 (13:40) 6.2 (00:00) 10.3 8.89 (22:20) 5.28 (23:59) 0 0 0 0 0
24-11-2017 16.9 (16:10) 6.8 (00:00) 11.8 8.61 (14:50) 5 (13:00) 0 0 0 0 0
23-11-2017 17.5 (14:50) 3.1 (00:00) 10.3 7.22 (15:00) 4.17 (15:00) 0 0 0 0 0
22-11-2017 17.7 (15:40) -1.8 (-00:0) 8 4.72 (15:50) 2.5 (15:10) 0 0 0 0 0
21-11-2017 17.3 (14:40) -1.7 (-00:0) 7.8 4.17 (15:40) 2.22 (11:10) 0 0 0 0 0
20-11-2017 16.6 (15:20) -1.4 (-00:0) 7.6 4.44 (13:30) 2.5 (14:50) 0 0 0 0 0
19-11-2017 18.7 (15:50) 2.7 (00:00) 10.7 5.83 (16:00) 3.89 (06:10) 0 0 0 0 0
18-11-2017 19 (15:40) 2.3 (00:00) 10.6 5.83 (16:10) 3.89 (06:20) 0 0 0 0 0
17-11-2017 18.8 (15:50) 3.6 (00:00) 11.2 7.78 (13:10) 4.72 (13:00) 0 0 0 0 0
16-11-2017 18.5 (16:00) -0.7 (-00:0) 8.9 6.11 (15:20) 3.61 (16:20) 0 0 0 0 0
15-11-2017 14.4 (16:00) -1.9 (-00:0) 6.2 6.39 (15:20) 3.61 (15:00) 0 0 0 0 0

Gráficas

Temp. máximas Temp. mínimas Temp. medias Precipitaciones Rachas de viento máximas Velocidades máximas media en intervalos de 10 minutos

Datos horarios

Fecha y hora oficial Temperatura (ºC) Velocidad del viento (km/h) Dirección del viento Racha (km/h) Dirección de racha Precipitación (mm) Presión (hPa) Tendencia (hPa) Humedad (%)
2017-12-14 23:00:00 8.1 12 Sudoeste 31 Oeste 0 -- -- 98
2017-12-14 22:00:00 7.8 13 Sudoeste 25 Sudoeste 0 -- -- 98
2017-12-14 21:00:00 8 15 Sudoeste 24 Oeste 0 -- -- 98
2017-12-14 20:00:00 8.2 10 Sudoeste 26 Oeste 0 -- -- 98
2017-12-14 19:00:00 8.5 9 Oeste 28 Oeste 0 -- -- 98
2017-12-14 18:00:00 8.1 8 Sudoeste 19 Oeste 0 -- -- 98
2017-12-14 17:00:00 7.2 8 Sudoeste 18 Sudoeste 0 -- -- 98
2017-12-14 16:00:00 7 7 Sudoeste 18 Sudoeste 0 -- -- 98
2017-12-14 15:00:00 6.4 9 Sudoeste 20 Sudoeste 0.2 -- -- 98
2017-12-14 14:00:00 5.9 14 Sudoeste 23 Sudoeste 0 -- -- 98
2017-12-14 13:00:00 5.7 9 Sudoeste 21 Oeste 0 -- -- 98
2017-12-14 12:00:00 5.2 9 Sudoeste 18 Oeste 0 -- -- 98
2017-12-14 11:00:00 4.4 9 Sudoeste 15 Sur 0 -- -- 97
2017-12-14 10:00:00 3.9 8 Sudoeste 14 Sudoeste 0.2 -- -- 97
2017-12-14 09:00:00 3.8 5 Sudoeste 13 Oeste 0 -- -- 97
2017-12-14 08:00:00 3.2 4 Sudoeste 11 Sudoeste 0 -- -- 97
2017-12-14 07:00:00 2.9 5 Sur 13 Sudoeste 0 -- -- 96
2017-12-14 06:00:00 3.1 3 Sudoeste 12 Sudoeste 0 -- -- 96
2017-12-14 05:00:00 3.4 5 Sudoeste 13 Sudoeste 0 -- -- 93
2017-12-14 04:00:00 4 3 Sudoeste 10 Noroeste 0 -- -- 92
2017-12-14 03:00:00 4.2 3 Sudoeste 10 Sudoeste 0 -- -- 91
2017-12-14 02:00:00 4 0 Calma 9 Sudoeste 0 -- -- 91
2017-12-14 01:00:00 4.1 4 Sudoeste 14 Sudoeste 0 -- -- 90
2017-12-14 00:00:00 3.2 2 Oeste 8 Noroeste 0 -- -- 90
2017-12-13 23:00:00 3.4 0 Calma 9 Oeste 0 -- -- 85
2017-12-13 22:00:00 3.7 0 Calma 8 Sudoeste 0 -- -- 82
2017-12-13 21:00:00 3.8 2 Norte 8 Noroeste 0 -- -- 81
2017-12-13 20:00:00 3.7 0 Calma 7 Noroeste 0 -- -- 81
2017-12-13 19:00:00 4.5 0 Calma 3 Sudoeste 0 -- -- 75
2017-12-13 18:00:00 5.7 3 Sudoeste 11 Noroeste 0 -- -- 69
2017-12-13 17:00:00 7 5 Oeste 15 Oeste 0 -- -- 64
2017-12-13 16:00:00 7.4 6 Oeste 14 Oeste 0 -- -- 60
2017-12-13 15:00:00 7.5 6 Oeste 19 Oeste 0 -- -- 58
2017-12-13 14:00:00 6.8 7 Sudoeste 16 Sudoeste 0 -- -- 63
2017-12-13 13:00:00 5.6 6 Oeste 14 Noroeste 0 -- -- 65
2017-12-13 12:00:00 3.4 8 Sur 15 Sur 0 -- -- 78
2017-12-13 11:00:00 0.2 5 Sur 8 Sur 0 -- -- 92
2017-12-13 10:00:00 -2.2 0 Calma 5 Sur 0 -- -- 94
2017-12-13 09:00:00 -3.6 0 Calma 5 Sur 0 -- -- 92
2017-12-13 08:00:00 -3.8 2 Sur 5 Sur 0 -- -- 92
2017-12-13 07:00:00 -3.6 0 Calma 0 Calma 0 -- -- 90
2017-12-13 06:00:00 -3.2 0 Calma 2 Oeste 0 -- -- 89
2017-12-13 05:00:00 -3 0 Calma 4 Noroeste 0 -- -- 89
2017-12-13 04:00:00 -2.8 0 Calma 5 Sur 0 -- -- 89
2017-12-13 03:00:00 -2.5 0 Calma 5 Este 0 -- -- 87
2017-12-13 02:00:00 -2 0 Calma 0 Calma 0 -- -- 87
2017-12-13 01:00:00 -1.2 0 Calma 8 Nordeste 0 -- -- 84
2017-12-13 00:00:00 -1 0 Calma 5 Norte 0 -- -- 86
2017-12-12 23:00:00 -0.4 3 Sur 5 Sur 0 -- -- 82
2017-12-12 22:00:00 0.4 0 Calma 4 Oeste 0 -- -- 77
2017-12-12 21:00:00 0.8 0 Calma 5 Noroeste 0 -- -- 77
2017-12-12 20:00:00 1.6 3 Nordeste 5 Nordeste 0 -- -- 73
2017-12-12 19:00:00 2.9 0 Calma 9 Noroeste 0 -- -- 68
2017-12-12 18:00:00 4.4 5 Noroeste 22 Noroeste 0 -- -- 62
2017-12-12 17:00:00 6.1 12 Noroeste 22 Noroeste 0 -- -- 59
2017-12-12 16:00:00 7 10 Noroeste 20 Noroeste 0 -- -- 51
2017-12-12 15:00:00 6.6 7 Norte 23 Noroeste 0 -- -- 53
2017-12-12 14:00:00 5.9 9 Norte 22 Nordeste 0 -- -- 57
2017-12-12 13:00:00 4.7 13 Norte 23 Nordeste 0 -- -- 62
2017-12-12 12:00:00 3.2 14 Nordeste 27 Nordeste 0 -- -- 69
2017-12-12 11:00:00 1.9 11 Nordeste 18 Nordeste 0 -- -- 73
2017-12-12 10:00:00 -0.1 5 Norte 10 Norte 0 -- -- 81
2017-12-12 09:00:00 -1 3 Norte 10 Norte 0 -- -- 82
2017-12-12 08:00:00 -0.8 5 Norte 7 Norte 0.2 -- -- 81
2017-12-12 07:00:00 -0.3 3 Nordeste 12 Noroeste 0 -- -- 79
2017-12-12 06:00:00 0.1 7 Norte 15 Norte 0 -- -- 79
2017-12-12 05:00:00 0.8 7 Norte 18 Norte 0 -- -- 78
2017-12-12 04:00:00 0.8 8 Norte 20 Norte 0.2 -- -- 82
2017-12-12 03:00:00 2 9 Norte 22 Norte 0 -- -- 79
2017-12-12 02:00:00 2.6 9 Norte 21 Norte 0.2 -- -- 84
2017-12-12 01:00:00 3.4 8 Norte 16 Noroeste 0 -- -- 91
2017-12-12 00:00:00 3.7 7 Noroeste 15 Noroeste 0.2 -- -- 94
2017-12-11 23:00:00 3.8 4 Noroeste 13 Sudoeste 0 -- -- 94
2017-12-11 22:00:00 4.2 5 Sudoeste 17 Oeste 0 -- -- 89
2017-12-11 21:00:00 4.5 3 Oeste 14 Sudoeste 0 -- -- 84
2017-12-11 20:00:00 4.3 4 Noroeste 13 Oeste 0 -- -- 82
2017-12-11 19:00:00 4.1 0 Calma 17 Noroeste 0 -- -- 81
2017-12-11 18:00:00 5 6 Noroeste 27 Oeste 0 -- -- 77
2017-12-11 17:00:00 6 8 Oeste 28 Noroeste 0 -- -- 72
2017-12-11 16:00:00 6.6 8 Oeste 31 Oeste 0 -- -- 71
2017-12-11 15:00:00 6.3 9 Oeste 33 Oeste 0 -- -- 78
2017-12-11 14:00:00 6.2 14 Oeste 40 Noroeste 0 -- -- 81
2017-12-11 13:00:00 5.2 11 Oeste 35 Oeste 0 -- -- 85
2017-12-11 12:00:00 4.7 12 Oeste 38 Oeste 0 -- -- 87
2017-12-11 11:00:00 4.4 14 Oeste 40 Oeste 0 -- -- 90
2017-12-11 10:00:00 4.6 12 Oeste 30 Oeste 0 -- -- 88
2017-12-11 09:00:00 4.6 10 Oeste 37 Noroeste 0 -- -- 90
2017-12-11 08:00:00 4.6 12 Oeste 45 Noroeste 0.8 -- -- 92
2017-12-11 07:00:00 5 13 Oeste 46 Noroeste 2.4 -- -- 93
2017-12-11 06:00:00 5.5 14 Noroeste 53 Sudoeste 3 -- -- 94
2017-12-11 05:00:00 8.6 36 Sudoeste 68 Sudoeste 0.8 -- -- 88
2017-12-11 04:00:00 9 27 Sudoeste 59 Sudoeste 0.2 -- -- 90
2017-12-11 03:00:00 9 24 Sudoeste 49 Sudoeste 0.4 -- -- 91
2017-12-11 02:00:00 8.4 24 Sudoeste 42 Sudoeste 0.2 -- -- 93
2017-12-11 01:00:00 8.4 20 Sudoeste 50 Sudoeste 0 -- -- 91
2017-12-11 00:00:00 8.6 25 Sudoeste 44 Sudoeste 0 -- -- 89
2017-12-10 23:00:00 8.2 23 Sudoeste 44 Sudoeste 0 -- -- 94
2017-12-10 22:00:00 8.5 24 Sudoeste 48 Sudoeste 0 -- -- 91
2017-12-10 21:00:00 8.4 23 Sudoeste 43 Oeste 0 -- -- 91
2017-12-10 20:00:00 8.5 28 Sudoeste 45 Sudoeste 0 -- -- 91
2017-12-10 19:00:00 8.7 23 Sudoeste 42 Sudoeste 0 -- -- 89
2017-12-10 18:00:00 8.5 27 Sudoeste 43 Sudoeste 0 -- -- 91
2017-12-10 17:00:00 9 23 Sudoeste 40 Sudoeste 0 -- -- 85
2017-12-10 16:00:00 9.3 21 Sudoeste 35 Oeste 0 -- -- 82
2017-12-10 15:00:00 9.3 15 Sudoeste 26 Oeste 0 -- -- 80
2017-12-10 14:00:00 9.1 12 Sudoeste 33 Noroeste 0 -- -- 81
2017-12-10 13:00:00 8.8 12 Oeste 37 Oeste 0 -- -- 82
2017-12-10 12:00:00 8.4 17 Sudoeste 31 Sudoeste 0 -- -- 87
2017-12-10 11:00:00 7.7 16 Sudoeste 27 Oeste 0 -- -- 91
2017-12-10 10:00:00 7.4 9 Sudoeste 23 Oeste 0 -- -- 91
2017-12-10 09:00:00 7.9 6 Oeste 35 Sudoeste 0 -- -- 92
2017-12-10 08:00:00 7.9 10 Oeste 28 Oeste 0 -- -- 94
2017-12-10 07:00:00 7.6 8 Oeste 24 Noroeste 0 -- -- 95
2017-12-10 06:00:00 7.7 8 Oeste 27 Noroeste 0 -- -- 94
2017-12-10 05:00:00 8 4 Oeste 17 Sudoeste 0 -- -- 90
2017-12-10 04:00:00 8.2 6 Oeste 27 Noroeste 0 -- -- 89
2017-12-10 03:00:00 8 4 Noroeste 13 Oeste 0 -- -- 90
2017-12-10 02:00:00 7.2 4 Sudoeste 11 Sudoeste 0 -- -- 90
2017-12-10 01:00:00 7.9 2 Noroeste 14 Noroeste 0 -- -- 90
2017-12-10 00:00:00 9 5 Noroeste 18 Oeste 0 -- -- 87
2017-12-09 23:00:00 9.7 7 Oeste 29 Noroeste 0 -- -- 88
2017-12-09 22:00:00 9.6 10 Oeste 23 Noroeste 0 -- -- 90
2017-12-09 21:00:00 9.4 4 Oeste 13 Oeste 0 -- -- 91
2017-12-09 20:00:00 9.5 7 Sudoeste 17 Sudoeste 0 -- -- 87
2017-12-09 19:00:00 10 5 Oeste 14 Oeste 0 -- -- 83
2017-12-09 18:00:00 10.3 3 Sudoeste 14 Noroeste 0 -- -- 82
2017-12-09 17:00:00 10.4 6 Noroeste 20 Noroeste 0 -- -- 80
2017-12-09 16:00:00 10.7 7 Noroeste 18 Oeste 0 -- -- 77
2017-12-09 15:00:00 10.3 6 Noroeste 19 Noroeste 0 -- -- 78
2017-12-09 14:00:00 9.3 6 Oeste 16 Sudoeste 0 -- -- 83
2017-12-09 13:00:00 8.8 3 Oeste 9 Sudoeste 0 -- -- 80
2017-12-09 12:00:00 7.8 0 Calma 4 Sudoeste 0 -- -- 80
2017-12-09 11:00:00 6.8 0 Calma 2 Oeste 0 -- -- 86
2017-12-09 10:00:00 5.5 0 Calma 2 Sudoeste 0 -- -- 92
2017-12-09 09:00:00 4.8 0 Calma 2 Nordeste 0 -- -- 89
2017-12-09 08:00:00 5.1 0 Calma 5 Noroeste 0 -- -- 91
2017-12-09 07:00:00 5.2 2 Sudoeste 6 Nordeste 0 -- -- 91
2017-12-09 06:00:00 5.1 5 Nordeste 13 Nordeste 0 -- -- 90
2017-12-09 05:00:00 5.2 8 Nordeste 16 Norte 0 -- -- 89
2017-12-09 04:00:00 6.6 4 Noroeste 9 Oeste 0 -- -- 88
2017-12-09 03:00:00 6.6 0 Calma 4 Norte 0 -- -- 88
2017-12-09 02:00:00 6.9 3 Norte 12 Oeste 0.2 -- -- 86
2017-12-09 01:00:00 7.2 4 Oeste 13 Oeste 0 -- -- 81
2017-12-09 00:00:00 7.1 6 Oeste 13 Noroeste 0 -- -- 78
2017-12-08 23:00:00 6.8 2 Oeste 9 Sudoeste 0 -- -- 74
2017-12-08 22:00:00 6.3 4 Sudoeste 10 Sudoeste 0 -- -- 76
2017-12-08 21:00:00 6 0 Calma 6 Sudoeste 0 -- -- 69
2017-12-08 20:00:00 6.5 0 Calma 8 Oeste 0 -- -- 66
2017-12-08 19:00:00 7 3 Noroeste 8 Oeste 0 -- -- 64
2017-12-08 18:00:00 7.9 4 Noroeste 9 Noroeste 0 -- -- 64
2017-12-08 17:00:00 9.1 3 Noroeste 11 Norte 0 -- -- 62
2017-12-08 16:00:00 9.1 4 Noroeste 12 Oeste 0 -- -- 60
2017-12-08 15:00:00 8.5 8 Noroeste 19 Noroeste 0 -- -- 63
2017-12-08 14:00:00 8.9 11 Noroeste 21 Noroeste 0 -- -- 60
2017-12-08 13:00:00 8.7 9 Noroeste 17 Noroeste 0 -- -- 59
2017-12-08 12:00:00 7 5 Oeste 9 Oeste 0 -- -- 60
2017-12-08 11:00:00 5.1 3 Sudoeste 10 Sudoeste 0 -- -- 62
2017-12-08 10:00:00 2.3 3 Oeste 4 Noroeste 0 -- -- 68
2017-12-08 09:00:00 -0.9 2 Sudoeste 3 Sur 0 -- -- 82
2017-12-08 08:00:00 -1 0 Calma 3 Sudoeste 0 -- -- 82
2017-12-08 07:00:00 -0.6 2 Sur 3 Sur 0 -- -- 81
2017-12-08 06:00:00 0.1 0 Calma 3 Nordeste 0 -- -- 79
2017-12-08 05:00:00 0.6 0 Calma 4 Norte 0 -- -- 79
2017-12-08 04:00:00 0.5 0 Calma 4 Noroeste 0 -- -- 79
2017-12-08 03:00:00 0.3 0 Calma 3 Sudoeste 0 -- -- 79
2017-12-08 02:00:00 -0.3 2 Sur 4 Nordeste 0 -- -- 80
2017-12-08 01:00:00 -0.1 0 Calma 4 Sudeste 0 -- -- 79
2017-12-08 00:00:00 0.5 3 Sur 5 Sur 0 -- -- 75
2017-12-07 23:00:00 0.6 0 Calma 3 Nordeste 0 -- -- 75
2017-12-07 22:00:00 0.6 0 Calma 4 Sur 0 -- -- 75
2017-12-07 21:00:00 1.5 0 Calma 4 Sudeste 0 -- -- 72
2017-12-07 20:00:00 2.6 0 Calma 5 Noroeste 0 -- -- 68
2017-12-07 19:00:00 4.6 0 Calma 5 Noroeste 0 -- -- 61
2017-12-07 18:00:00 7.2 3 Oeste 8 Noroeste 0 -- -- 50
2017-12-07 17:00:00 9.5 3 Oeste 10 Sudoeste 0 -- -- 44
2017-12-07 16:00:00 10.3 5 Oeste 12 Sudoeste 0 -- -- 40
2017-12-07 15:00:00 10.1 4 Oeste 10 Oeste 0 -- -- 40
2017-12-07 14:00:00 8.2 4 Sudoeste 6 Sudoeste 0 -- -- 46
2017-12-07 13:00:00 5.2 3 Nordeste 5 Nordeste 0 -- -- 73
2017-12-07 12:00:00 3 2 Norte 10 Nordeste 0 -- -- 76
2017-12-07 11:00:00 1.2 8 Norte 12 Nordeste 0 -- -- 77
2017-12-07 10:00:00 -0.3 5 Nordeste 10 Nordeste 0 -- -- 87
2017-12-07 09:00:00 -2.2 4 Norte 11 Norte 0 -- -- 87
2017-12-07 08:00:00 -2.7 0 Calma 6 Norte 0 -- -- 89
2017-12-07 07:00:00 -3.7 0 Calma 3 Norte 0 -- -- 88
2017-12-07 06:00:00 -4.1 0 Calma 3 Norte 0 -- -- 85
2017-12-07 05:00:00 -3.8 2 Norte 5 Norte 0 -- -- 85
2017-12-07 04:00:00 -3.8 2 Nordeste 4 Norte 0 -- -- 86
2017-12-07 03:00:00 -3.7 0 Calma 2 Nordeste 0 -- -- 82
2017-12-07 02:00:00 -3.3 0 Calma 2 Noroeste 0 -- -- 81
2017-12-07 01:00:00 -3.2 2 Nordeste 3 Norte 0 -- -- 81
2017-12-07 00:00:00 -2.7 0 Calma 2 Nordeste 0 -- -- 77
2017-12-06 23:00:00 -1.8 0 Calma 0 Calma 0 -- -- 72
2017-12-06 22:00:00 -1.1 0 Calma 4 Este 0 -- -- 72
2017-12-06 21:00:00 0.4 0 Calma 4 Noroeste 0 -- -- 67
2017-12-06 20:00:00 2.4 0 Calma 2 Oeste 0 -- -- 61
2017-12-06 19:00:00 4.8 0 Calma 4 Sudoeste 0 -- -- 52
2017-12-06 18:00:00 8.2 2 Sur 4 Sur 0 -- -- 45
2017-12-06 17:00:00 10.9 3 Sur 7 Sur 0 -- -- 38
2017-12-06 16:00:00 11.4 4 Sur 9 Sudoeste 0 -- -- 35
2017-12-06 15:00:00 10.7 4 Sudoeste 9 Sudoeste 0 -- -- 39
2017-12-06 14:00:00 9.6 3 Sudeste 12 Sudeste 0 -- -- 44
2017-12-06 13:00:00 7.9 6 Sudeste 13 Sudeste 0 -- -- 53
2017-12-06 12:00:00 5.3 6 Sudeste 13 Nordeste 0 -- -- 64
2017-12-06 11:00:00 2.5 4 Norte 9 Norte 0 -- -- 68
2017-12-06 10:00:00 -1.7 4 Norte 8 Nordeste 0 -- -- 76
2017-12-06 09:00:00 -2.7 5 Nordeste 12 Norte 0 -- -- 72
2017-12-06 08:00:00 -3.1 3 Norte 12 Norte 0 -- -- 74
2017-12-06 07:00:00 -1.6 8 Nordeste 17 Nordeste 0 -- -- 75
2017-12-06 06:00:00 -1.6 11 Nordeste 16 Nordeste 0 -- -- 77
2017-12-06 05:00:00 -3.5 6 Nordeste 9 Nordeste 0 -- -- 84
2017-12-06 04:00:00 -2.9 4 Nordeste 9 Nordeste 0 -- -- 75
2017-12-06 03:00:00 -4.3 0 Calma 6 Norte 0 -- -- 77
2017-12-06 02:00:00 -4.1 0 Calma 0 Calma 0 -- -- 77
2017-12-06 01:00:00 -3.3 0 Calma 0 Calma 0 -- -- 76
2017-12-06 00:00:00 -2.5 0 Calma 0 Calma 0 -- -- 76
2017-12-05 23:00:00 -1.5 0 Calma 2 Nordeste 0 -- -- 76
2017-12-05 22:00:00 -0.8 0 Calma 4 Nordeste 0 -- -- 74
2017-12-05 21:00:00 0.6 0 Calma 4 Sudeste 0 -- -- 69
2017-12-05 20:00:00 2 0 Calma 7 Norte 0 -- -- 64
2017-12-05 19:00:00 4.1 4 Nordeste 7 Nordeste 0 -- -- 59
2017-12-05 18:00:00 7.5 4 Nordeste 6 Nordeste 0 -- -- 47
2017-12-05 17:00:00 10.7 2 Sur 5 Este 0 -- -- 33
2017-12-05 16:00:00 11.8 2 Este 8 Este 0 -- -- 34
2017-12-05 15:00:00 10.5 2 Sudoeste 8 Norte 0 -- -- 38
2017-12-05 14:00:00 8.8 4 Norte 13 Norte 0 -- -- 48
2017-12-05 13:00:00 6.6 6 Nordeste 14 Norte 0 -- -- 60
2017-12-05 12:00:00 3.9 9 Nordeste 16 Nordeste 0 -- -- 71
2017-12-05 11:00:00 1.2 12 Nordeste 17 Nordeste 0 -- -- 84
2017-12-05 10:00:00 -0.9 10 Nordeste 18 Nordeste 0 -- -- 89
2017-12-05 09:00:00 -2.8 9 Norte 13 Norte 0 -- -- 89
2017-12-05 08:00:00 -3.1 7 Nordeste 12 Nordeste 0 -- -- 88
2017-12-05 07:00:00 -4.7 0 Calma 6 Norte 0 -- -- 87
2017-12-05 06:00:00 -4.1 0 Calma 2 Norte 0 -- -- 87
2017-12-05 05:00:00 -3.4 2 Norte 4 Norte 0 -- -- 87
2017-12-05 04:00:00 -2.5 3 Nordeste 8 Nordeste 0 -- -- 83
2017-12-05 03:00:00 -0.9 6 Nordeste 10 Nordeste 0 -- -- 85
2017-12-05 02:00:00 -1.1 6 Nordeste 9 Nordeste 0 -- -- 88
2017-12-05 01:00:00 -2.8 0 Calma 2 Noroeste 0 -- -- 83
2017-12-05 00:00:00 -2.3 0 Calma 4 Norte 0 -- -- 82
2017-12-04 23:00:00 -1.7 0 Calma 3 Noroeste 0 -- -- 79
2017-12-04 22:00:00 -0.9 0 Calma 3 Norte 0 -- -- 76
2017-12-04 21:00:00 0.3 0 Calma 3 Noroeste 0 -- -- 73
2017-12-04 20:00:00 1.8 0 Calma 3 Sur 0 -- -- 69
2017-12-04 19:00:00 3.7 0 Calma 5 Nordeste 0 -- -- 64
2017-12-04 18:00:00 6.1 3 Norte 9 Nordeste 0 -- -- 58
2017-12-04 17:00:00 8.4 7 Norte 12 Norte 0 -- -- 51
2017-12-04 16:00:00 9.7 0 Calma 9 Nordeste 0 -- -- 49
2017-12-04 15:00:00 9.1 3 Este 11 Este 0 -- -- 49
2017-12-04 14:00:00 7.3 3 Nordeste 12 Norte 0 -- -- 55
2017-12-04 13:00:00 5.8 7 Nordeste 17 Nordeste 0 -- -- 65
2017-12-04 12:00:00 4 12 Nordeste 21 Nordeste 0 -- -- 73
2017-12-04 11:00:00 1.9 14 Nordeste 21 Nordeste 0 -- -- 80
2017-12-04 10:00:00 0.1 11 Nordeste 19 Nordeste 0 -- -- 85
2017-12-04 09:00:00 -1.5 13 Nordeste 22 Nordeste 0 -- -- 87
2017-12-04 08:00:00 -1.9 12 Nordeste 21 Nordeste 0 -- -- 86
2017-12-04 07:00:00 -2.2 9 Nordeste 14 Nordeste 0 -- -- 86
2017-12-04 06:00:00 -2.5 5 Sur 12 Sur 0 -- -- 84
2017-12-04 05:00:00 -2.4 4 Este 14 Nordeste 0 -- -- 83
2017-12-04 04:00:00 -2.8 0 Calma 8 Nordeste 0 -- -- 79
2017-12-04 03:00:00 -2.4 2 Sudeste 13 Norte 0 -- -- 74
2017-12-04 02:00:00 -2.7 0 Calma 4 Norte 0 -- -- 72
2017-12-04 01:00:00 -2.3 4 Nordeste 5 Nordeste 0 -- -- 71
2017-12-04 00:00:00 -2.2 0 Calma 3 Sudeste 0 -- -- 65
2017-12-03 23:00:00 -1.3 0 Calma 6 Sur 0 -- -- 60
2017-12-03 22:00:00 -0.1 0 Calma 19 Norte 0 -- -- 55
2017-12-03 21:00:00 1.1 4 Norte 17 Nordeste 0 -- -- 49
2017-12-03 20:00:00 1.6 7 Norte 15 Norte 0 -- -- 43
2017-12-03 19:00:00 1.7 6 Norte 15 Noroeste 0 -- -- 39
2017-12-03 18:00:00 3.5 8 Norte 21 Norte 0 -- -- 33
2017-12-03 17:00:00 5.6 14 Nordeste 30 Norte 0 -- -- 26
2017-12-03 16:00:00 6.5 16 Nordeste 29 Nordeste 0 -- -- 26
2017-12-03 15:00:00 5.9 15 Norte 33 Nordeste 0 -- -- 27
2017-12-03 14:00:00 4.9 13 Norte 30 Nordeste 0 -- -- 32
2017-12-03 13:00:00 3.1 17 Nordeste 34 Nordeste 0 -- -- 38
2017-12-03 12:00:00 1.5 18 Norte 33 Norte 0 -- -- 47
2017-12-03 11:00:00 -0.2 14 Norte 25 Norte 0 -- -- 61
2017-12-03 10:00:00 -2.4 13 Norte 26 Norte 0 -- -- 77
2017-12-03 09:00:00 -4.1 9 Norte 26 Norte 0 -- -- 82
2017-12-03 08:00:00 -3.9 8 Norte 27 Norte 0 -- -- 80
2017-12-03 07:00:00 -3.3 18 Norte 33 Norte 0 -- -- 79
2017-12-03 06:00:00 -3.1 10 Norte 18 Norte 0 -- -- 79
2017-12-03 05:00:00 -2.8 9 Nordeste 18 Norte 0 -- -- 77
2017-12-03 04:00:00 -2.3 6 Noroeste 19 Norte 0 -- -- 75
2017-12-03 03:00:00 -1.1 11 Norte 24 Norte 0 -- -- 70
2017-12-03 02:00:00 -1.7 7 Norte 18 Norte 0 -- -- 74
2017-12-03 01:00:00 -2.2 3 Sur 13 Noroeste 0 -- -- 76
2017-12-03 00:00:00 -0.7 7 Noroeste 22 Noroeste 0 -- -- 70
2017-12-02 23:00:00 -0.1 11 Norte 29 Noroeste 0 -- -- 69
2017-12-02 22:00:00 0.6 13 Norte 34 Noroeste 0 -- -- 69
2017-12-02 21:00:00 0.3 6 Norte 21 Norte 0 -- -- 73
2017-12-02 20:00:00 0.8 8 Norte 22 Noroeste 0 -- -- 72
2017-12-02 19:00:00 1.7 9 Noroeste 31 Noroeste 0 -- -- 68
2017-12-02 18:00:00 2.8 13 Norte 30 Norte 0 -- -- 56
2017-12-02 17:00:00 3.8 17 Noroeste 37 Noroeste 0 -- -- 59
2017-12-02 16:00:00 4.9 18 Norte 37 Norte 0 -- -- 51
2017-12-02 15:00:00 4.9 15 Norte 40 Noroeste 0 -- -- 52
2017-12-02 14:00:00 4.2 19 Noroeste 37 Noroeste 0 -- -- 60
2017-12-02 13:00:00 2.8 18 Noroeste 33 Noroeste 0 -- -- 65
2017-12-02 12:00:00 2.1 17 Noroeste 37 Noroeste 0.2 -- -- 68
2017-12-02 11:00:00 0.4 14 Noroeste 31 Noroeste 0 -- -- 70
2017-12-02 10:00:00 -0.8 10 Noroeste 26 Noroeste 0 -- -- 73
2017-12-02 09:00:00 -2.2 10 Noroeste 21 Noroeste 0 -- -- 78
2017-12-02 08:00:00 -3.8 4 Sur 17 Oeste 0 -- -- 84
2017-12-02 07:00:00 -2.1 10 Noroeste 20 Noroeste 0 -- -- 79
2017-12-02 06:00:00 -3.9 0 Calma 10 Noroeste 0 -- -- 82
2017-12-02 05:00:00 -2.9 9 Noroeste 17 Noroeste 0 -- -- 80
2017-12-02 04:00:00 -3.7 3 Sur 7 Sur 0 -- -- 80
2017-12-02 03:00:00 -2.7 3 Sudoeste 16 Noroeste 0 -- -- 75
2017-12-02 02:00:00 -1.9 4 Noroeste 19 Noroeste 0 -- -- 71
2017-12-02 01:00:00 -2.4 4 Noroeste 16 Noroeste 0 -- -- 75
2017-12-02 00:00:00 -2.6 4 Noroeste 9 Norte 0 -- -- 76
2017-12-01 23:00:00 -1.8 2 Norte 9 Norte 0 -- -- 73
2017-12-01 22:00:00 -1.5 4 Noroeste 12 Norte 0 -- -- 72
2017-12-01 21:00:00 -0.7 6 Norte 13 Norte 0 -- -- 69
2017-12-01 20:00:00 -0.8 9 Norte 18 Norte 0 -- -- 71
2017-12-01 19:00:00 0.2 12 Norte 27 Nordeste 0 -- -- 70
2017-12-01 18:00:00 0.6 15 Norte 26 Norte 0 -- -- 78
2017-12-01 17:00:00 1.7 20 Norte 37 Norte 0 -- -- 79
2017-12-01 16:00:00 4 12 Norte 27 Noroeste 0 -- -- 68
2017-12-01 15:00:00 3.3 13 Norte 35 Noroeste 0.4 -- -- 81
2017-12-01 14:00:00 3.3 19 Noroeste 43 Oeste 0 -- -- 78
2017-12-01 13:00:00 4.1 12 Noroeste 30 Noroeste 0.2 -- -- 61
2017-12-01 12:00:00 3.1 12 Noroeste 29 Oeste 0 -- -- 64
2017-12-01 11:00:00 1.6 8 Noroeste 28 Noroeste 0 -- -- 70
2017-12-01 10:00:00 -0.6 2 Oeste 10 Sudoeste 0 -- -- 81
2017-12-01 09:00:00 -2.3 2 Noroeste 8 Noroeste 0 -- -- 85
2017-12-01 08:00:00 -3 3 Norte 9 Noroeste 0 -- -- 84
2017-12-01 07:00:00 -2.6 0 Calma 5 Oeste 0 -- -- 83
2017-12-01 06:00:00 -2.3 0 Calma 5 Noroeste 0 -- -- 81
2017-12-01 05:00:00 -1.3 3 Oeste 8 Noroeste 0 -- -- 78
2017-12-01 04:00:00 -0.9 3 Noroeste 10 Oeste 0 -- -- 76
2017-12-01 03:00:00 -1.4 3 Norte 9 Noroeste 0 -- -- 77
2017-12-01 02:00:00 -0.7 3 Noroeste 8 Noroeste 0 -- -- 75
2017-12-01 01:00:00 -1.2 0 Calma 8 Oeste 0 -- -- 79
2017-12-01 00:00:00 -0.5 0 Calma 8 Norte 0 -- -- 75
2017-11-30 23:00:00 0.2 5 Norte 12 Norte 0 -- -- 72
2017-11-30 22:00:00 0.7 2 Nordeste 15 Nordeste 0 -- -- 69
2017-11-30 21:00:00 1 0 Calma 9 Norte 0 -- -- 67
2017-11-30 20:00:00 1.9 4 Norte 14 Norte 0 -- -- 63
2017-11-30 19:00:00 2.4 6 Nordeste 15 Nordeste 0 -- -- 61
2017-11-30 18:00:00 4.2 10 Norte -- -- -- -- -- 53
2017-11-30 17:00:00 6.1 15 Norte 35 Norte 0 -- -- 49
2017-11-30 16:00:00 7.1 15 Nordeste 36 Nordeste 0 -- -- 47
2017-11-30 15:00:00 6.7 20 Norte 39 Nordeste 0.2 -- -- 47
2017-11-30 14:00:00 6.2 23 Nordeste 40 Nordeste 0 -- -- 52
2017-11-30 13:00:00 5 24 Nordeste 40 Nordeste 0.2 -- -- 57
2017-11-30 12:00:00 3.4 25 Nordeste 49 Nordeste 0.2 -- -- 63
2017-11-30 11:00:00 1.9 26 Nordeste 41 Nordeste 0 -- -- 70
2017-11-30 10:00:00 -0.4 20 Nordeste 33 Nordeste 0 -- -- 79
2017-11-30 09:00:00 -1.6 16 Nordeste 30 Nordeste 0 -- -- 81
2017-11-30 08:00:00 -1.6 19 Nordeste 32 Nordeste 0 -- -- 82
2017-11-30 07:00:00 -1 23 Nordeste 37 Nordeste 0 -- -- 79
2017-11-30 06:00:00 -1.3 7 Norte 24 Nordeste 0 -- -- 82
2017-11-30 05:00:00 -0.8 9 Nordeste 35 Nordeste 0 -- -- 81
2017-11-30 04:00:00 -0.4 19 Nordeste 34 Nordeste 0 -- -- 81
2017-11-30 03:00:00 -0.5 12 Norte 23 Nordeste 0 -- -- 84
2017-11-30 02:00:00 0.1 12 Nordeste 24 Nordeste 0 -- -- 84
2017-11-30 01:00:00 0.5 11 Nordeste 18 Nordeste 0 -- -- 83
2017-11-30 00:00:00 1.1 11 Nordeste 22 Nordeste 0 -- -- 82
2017-11-29 23:00:00 1.4 12 Nordeste 24 Nordeste 0 -- -- 83
2017-11-29 22:00:00 2.5 15 Nordeste 28 Nordeste 0 -- -- 79
2017-11-29 21:00:00 3 13 Nordeste 23 Nordeste 0 -- -- 75
2017-11-29 20:00:00 3.9 9 Nordeste 17 Nordeste 0 -- -- 69
2017-11-29 19:00:00 5.2 10 Norte 21 Norte 0 -- -- 62
2017-11-29 18:00:00 6.9 4 Norte 20 Norte 0 -- -- 58
2017-11-29 17:00:00 8.8 12 Nordeste 24 Norte 0 -- -- 54
2017-11-29 16:00:00 9.2 12 Norte 30 Noroeste 0 -- -- 53
2017-11-29 15:00:00 9.7 18 Norte 29 Norte 0 -- -- 56
2017-11-29 14:00:00 9.3 15 Norte 28 Nordeste 0 -- -- 61
2017-11-29 13:00:00 8 15 Nordeste 22 Norte 0 -- -- 75
2017-11-29 12:00:00 6.8 13 Nordeste 21 Norte 0 -- -- 80
2017-11-29 11:00:00 6 11 Nordeste 17 Nordeste 0 -- -- 82
2017-11-29 10:00:00 4.7 6 Nordeste 15 Nordeste 0 -- -- 87
2017-11-29 09:00:00 5 7 Norte 15 Nordeste 0 -- -- 94
2017-11-29 08:00:00 5.6 9 Norte 19 Norte 0 -- -- 96
2017-11-29 07:00:00 6.3 7 Nordeste 15 Nordeste 0.6 -- -- 96
2017-11-29 06:00:00 6.3 7 Norte 12 Norte 0 -- -- 96
2017-11-29 05:00:00 6.4 7 Nordeste 14 Nordeste 0 -- -- 96
2017-11-29 04:00:00 8.1 6 Noroeste 12 Noroeste 0.2 -- -- 96
2017-11-29 03:00:00 8.4 2 Oeste 8 Oeste 0 -- -- 96
2017-11-29 02:00:00 8.5 4 Oeste 11 Oeste 0.2 -- -- 96
2017-11-29 01:00:00 8.6 6 Sudoeste 12 Sudoeste 0.6 -- -- 96
2017-11-29 00:00:00 8.6 5 Sudoeste 13 Sudoeste 0.8 -- -- 96
2017-11-28 23:00:00 8 2 Sur 5 Sudoeste 0.8 -- -- 96
2017-11-28 22:00:00 7.8 3 Sur 6 Sur 0.4 -- -- 95
2017-11-28 21:00:00 7.6 3 Sur 7 Sur 1 -- -- 94
2017-11-28 20:00:00 7.7 2 Sur 4 Sudeste 1.4 -- -- 94
2017-11-28 19:00:00 7.5 0 Calma 5 Sur 0.8 -- -- 94
2017-11-28 18:00:00 7.3 3 Sur 8 Sur 2 -- -- 94
2017-11-28 17:00:00 7.1 2 Sudoeste 9 Sudoeste 0.2 -- -- 92
2017-11-28 16:00:00 7.1 4 Sudoeste 14 Oeste 0 -- -- 90
2017-11-28 15:00:00 7.6 6 Oeste 15 Oeste 0 -- -- 86
2017-11-28 14:00:00 9 8 Oeste 18 Sudoeste 0 -- -- 73
2017-11-28 13:00:00 9.1 8 Sudoeste 18 Oeste 0 -- -- 65
2017-11-28 12:00:00 8.2 8 Oeste 17 Sudoeste 0 -- -- 57
2017-11-28 11:00:00 5.3 2 Sur 4 Sur 0 -- -- 61
2017-11-28 10:00:00 2.2 0 Calma 4 Sur 0 -- -- 66
2017-11-28 09:00:00 0.5 0 Calma 3 Noroeste 0 -- -- 70
2017-11-28 08:00:00 0.5 0 Calma 2 Norte 0 -- -- 69
2017-11-28 07:00:00 0.7 0 Calma 3 Noroeste 0 -- -- 68
2017-11-28 06:00:00 1 0 Calma 3 Sudeste 0 -- -- 66
2017-11-28 05:00:00 1.2 0 Calma 7 Nordeste 0 -- -- 67
2017-11-28 04:00:00 1.2 0 Calma 5 Nordeste 0 -- -- 67
2017-11-28 03:00:00 1.1 0 Calma 4 Sur 0 -- -- 65
2017-11-28 02:00:00 0.3 2 Sur 4 Sudoeste 0 -- -- 66
2017-11-28 01:00:00 0.1 0 Calma 2 Sudeste 0 -- -- 68
2017-11-28 00:00:00 0.6 0 Calma 3 Sur 0 -- -- 67
2017-11-27 23:00:00 1 0 Calma 2 Sur 0 -- -- 64
2017-11-27 22:00:00 2.1 0 Calma 2 Sur 0 -- -- 60
2017-11-27 21:00:00 3.3 0 Calma 3 Sur 0 -- -- 56
2017-11-27 20:00:00 4.9 0 Calma 5 Sur 0 -- -- 50
2017-11-27 19:00:00 7 0 Calma 5 Oeste 0 -- -- 47
2017-11-27 18:00:00 9.5 4 Oeste 13 Noroeste 0 -- -- 42
2017-11-27 17:00:00 12 2 Nordeste 8 Este 0 -- -- 43
2017-11-27 16:00:00 11.7 0 Calma 9 Sudoeste 0 -- -- 41
2017-11-27 15:00:00 12.2 5 Sur 12 Sudoeste 0 -- -- 39
2017-11-27 14:00:00 11.1 3 Sudoeste 14 Sudeste 0 -- -- 44
2017-11-27 13:00:00 7.4 6 Nordeste 18 Nordeste 0 -- -- 51
2017-11-27 12:00:00 3.8 11 Nordeste 21 Nordeste 0 -- -- 59
2017-11-27 11:00:00 3 12 Nordeste 17 Nordeste 0 -- -- 63
2017-11-27 10:00:00 -0.7 11 Nordeste 19 Nordeste 0 -- -- 76
2017-11-27 09:00:00 -2.3 14 Nordeste 21 Nordeste 0 -- -- 76
2017-11-27 08:00:00 -3.8 3 Nordeste 8 Nordeste 0 -- -- 72
2017-11-27 07:00:00 -3.7 0 Calma 2 Nordeste 0 -- -- 77
2017-11-27 06:00:00 -3.5 0 Calma 4 Nordeste 0 -- -- 71
2017-11-27 05:00:00 -2.8 0 Calma 5 Nordeste 0 -- -- 72
2017-11-27 04:00:00 -1.6 0 Calma 6 Nordeste 0 -- -- 71
2017-11-27 03:00:00 -0.6 0 Calma 6 Nordeste -- -- -- 70
2017-11-27 02:00:00 0.5 8 Nordeste 23 Nordeste 0 -- -- 70
2017-11-27 01:00:00 1.4 15 Nordeste 26 Nordeste 0 -- -- 70
2017-11-27 00:00:00 2.4 13 Nordeste 27 Nordeste 0 -- -- 66
2017-11-26 23:00:00 2.9 11 Nordeste 20 Nordeste 0 -- -- 64
2017-11-26 22:00:00 3.1 10 Nordeste 16 Nordeste 0 -- -- 61
2017-11-26 21:00:00 3.1 6 Nordeste 10 Norte 0 -- -- 58
2017-11-26 20:00:00 3.8 2 Norte 5 Nordeste 0 -- -- 51
2017-11-26 19:00:00 5.7 5 Nordeste 8 Nordeste 0 -- -- 48
2017-11-26 18:00:00 8.6 4 Norte 17 Norte 0 -- -- 43
2017-11-26 17:00:00 10.7 8 Norte 22 Norte 0 -- -- 38
2017-11-26 16:00:00 11.7 13 Nordeste 23 Nordeste 0 -- -- 34
2017-11-26 15:00:00 11.4 9 Nordeste 26 Nordeste 0 -- -- 35
2017-11-26 14:00:00 9.9 19 Nordeste 29 Nordeste 0 -- -- 39
2017-11-26 13:00:00 8.2 18 Nordeste 31 Nordeste 0 -- -- 44
2017-11-26 12:00:00 6.1 10 Nordeste 28 Nordeste 0 -- -- 53
2017-11-26 11:00:00 4.4 19 Nordeste 30 Nordeste 0 -- -- 61
2017-11-26 10:00:00 2.5 13 Nordeste 23 Nordeste 0 -- -- 69
2017-11-26 09:00:00 1.1 15 Nordeste 32 Norte 0 -- -- 73
2017-11-26 08:00:00 -0.2 14 Norte 39 Nordeste 0 -- -- 76
2017-11-26 07:00:00 0.7 20 Nordeste 32 Norte 0 -- -- 73
2017-11-26 06:00:00 0.6 4 Nordeste 28 Nordeste 0 -- -- 76
2017-11-26 05:00:00 1.7 20 Norte 31 Nordeste 0 -- -- 73
2017-11-26 04:00:00 2.5 15 Norte 32 Nordeste 0 -- -- 73
2017-11-26 03:00:00 3.6 18 Nordeste 32 Nordeste 0 -- -- 72
2017-11-26 02:00:00 4.3 18 Nordeste 35 Nordeste 0 -- -- 72
2017-11-26 01:00:00 5.3 23 Nordeste 39 Nordeste 0 -- -- 71
2017-11-26 00:00:00 6.4 19 Norte 30 Norte 0 -- -- 70
2017-11-25 23:00:00 7.5 16 Norte 32 Nordeste 0 -- -- 71
2017-11-25 22:00:00 8.8 16 Nordeste 28 Nordeste 0 -- -- 70
2017-11-25 21:00:00 9.8 11 Nordeste 22 Nordeste 0 -- -- 70
2017-11-25 20:00:00 10.3 16 Nordeste 25 Norte 0 -- -- 68
2017-11-25 19:00:00 11.1 14 Nordeste 24 Nordeste 0 -- -- 66
2017-11-25 18:00:00 12.2 8 Norte 16 Nordeste 0 -- -- 54
2017-11-25 17:00:00 13.3 5 Noroeste 14 Noroeste 0 -- -- 49
2017-11-25 16:00:00 13.6 7 Noroeste 15 Noroeste 0 -- -- 46
2017-11-25 15:00:00 13.9 9 Noroeste 19 Noroeste 0 -- -- 47
2017-11-25 14:00:00 14.3 6 Oeste 16 Noroeste 0 -- -- 43
2017-11-25 13:00:00 13.7 4 Oeste 12 Sudoeste 0 -- -- 48
2017-11-25 12:00:00 11.8 5 Sur 10 Sur 0 -- -- 50
2017-11-25 11:00:00 10.2 4 Sur 11 Sur 0 -- -- 53
2017-11-25 10:00:00 8 4 Sur 9 Este 0 -- -- 56
2017-11-25 09:00:00 7.2 3 Este 9 Sur 0 -- -- 57
2017-11-25 08:00:00 7.5 5 Sur 11 Sur 0 -- -- 58
2017-11-25 07:00:00 6.8 4 Sur 9 Sur 0 -- -- 59
2017-11-25 06:00:00 6.7 2 Sur 5 Sur 0 -- -- 58
2017-11-25 05:00:00 6.6 4 Sur 7 Sur 0 -- -- 58
2017-11-25 04:00:00 6.3 4 Sur 8 Sur 0 -- -- 56
2017-11-25 03:00:00 6.2 4 Sur 6 Sur 0 -- -- 55
2017-11-25 02:00:00 6.8 0 Calma 9 Sur 0 -- -- 53
2017-11-25 01:00:00 6.9 0 Calma 5 Sur 0 -- -- 51
2017-11-25 00:00:00 7.8 2 Sur 13 Sur 0 -- -- 48
2017-11-24 23:00:00 7.8 7 Sur 13 Sur 0 -- -- 47
2017-11-24 22:00:00 7.8 4 Sur 9 Sur 0 -- -- 47
2017-11-24 21:00:00 8.2 3 Sur 5 Sudeste 0 -- -- 46
2017-11-24 20:00:00 9.6 3 Sur 7 Sur 0 -- -- 43
2017-11-24 19:00:00 11.7 0 Calma 9 Sur 0 -- -- 43
2017-11-24 18:00:00 14 4 Sur 8 Sudoeste 0 -- -- 44
2017-11-24 17:00:00 15.9 3 Oeste 18 Sudoeste 0 -- -- 45
2017-11-24 16:00:00 16.8 10 Oeste 25 Sudoeste 0 -- -- 39
2017-11-24 15:00:00 16.2 14 Sudoeste 31 Sudoeste 0 -- -- 44
2017-11-24 14:00:00 16.1 11 Sudoeste 31 Sudoeste 0 -- -- 49
2017-11-24 13:00:00 15.9 18 Sudoeste 30 Sudoeste 0 -- -- 53
2017-11-24 12:00:00 15.1 13 Sudoeste 24 Sudoeste 0 -- -- 57
2017-11-24 11:00:00 14 12 Sudoeste 22 Sudoeste 0 -- -- 53
2017-11-24 10:00:00 10.4 9 Sur 14 Sur 0 -- -- 47
2017-11-24 09:00:00 7 2 Nordeste 7 Sur 0 -- -- 52
2017-11-24 08:00:00 7.2 6 Sur 10 Sur 0 -- -- 50
2017-11-24 07:00:00 8.5 6 Sur 11 Sur 0 -- -- 48
2017-11-24 06:00:00 10.2 5 Sur 10 Sudoeste 0 -- -- 44
2017-11-24 05:00:00 10.4 6 Sudoeste 12 Sudoeste 0 -- -- 44
2017-11-24 04:00:00 9.6 3 Sur 9 Sur 0 -- -- 47
2017-11-24 03:00:00 9.3 0 Calma 11 Sur 0 -- -- 46
2017-11-24 02:00:00 8.3 4 Sur 10 Sur 0 -- -- 48
2017-11-24 01:00:00 7.6 2 Sur 8 Sur 0 -- -- 48
2017-11-24 00:00:00 8 0 Calma 7 Sur 0 -- -- 46
2017-11-23 23:00:00 9.1 5 Sur 9 Sur 0 -- -- 43
2017-11-23 22:00:00 9.9 5 Sur 9 Sur 0 -- -- 42
2017-11-23 21:00:00 10.4 4 Sur 8 Sur 0 -- -- 41
2017-11-23 20:00:00 10.7 4 Sur 7 Sur 0 -- -- 39
2017-11-23 19:00:00 12.3 4 Sur 7 Sur 0 -- -- 36
2017-11-23 18:00:00 14.3 3 Sur 9 Sudoeste 0 -- -- 33
2017-11-23 17:00:00 16 5 Sudoeste 19 Sudoeste 0 -- -- 31
2017-11-23 16:00:00 16.8 14 Sudoeste 24 Sudoeste 0 -- -- 30
2017-11-23 15:00:00 17.5 15 Sudoeste 26 Sudoeste 0 -- -- 28
2017-11-23 14:00:00 16.6 11 Sudoeste 24 Sudoeste 0 -- -- 31
2017-11-23 13:00:00 15.7 13 Sudoeste 22 Sur 0 -- -- 32
2017-11-23 12:00:00 13.3 8 Sur 15 Sur 0 -- -- 36
2017-11-23 11:00:00 11 10 Sur 15 Sur 0 -- -- 40
2017-11-23 10:00:00 6.6 2 Sur 7 Sudeste 0 -- -- 51
2017-11-23 09:00:00 4.9 0 Calma 2 Sudoeste 0 -- -- 53
2017-11-23 08:00:00 5.1 3 Sur 13 Sudeste 0 -- -- 53
2017-11-23 07:00:00 5.9 9 Sudeste 18 Este 0 -- -- 51
2017-11-23 06:00:00 4.3 0 Calma 8 Sudeste 0 -- -- 53
2017-11-23 05:00:00 3.4 2 Sur 5 Sudeste 0 -- -- 55
2017-11-23 04:00:00 3.4 2 Sur 6 Sur 0 -- -- 53
2017-11-23 03:00:00 3.8 0 Calma 2 Sudoeste 0 -- -- 51
2017-11-23 02:00:00 4.2 0 Calma 4 Sur 0 -- -- 50
2017-11-23 01:00:00 5 0 Calma 8 Sur 0 -- -- 47
2017-11-23 00:00:00 5.9 0 Calma 6 Sudeste 0 -- -- 46
2017-11-22 23:00:00 5.7 0 Calma 6 Sur 0 -- -- 46
2017-11-22 22:00:00 6.5 2 Sudeste 8 Sur 0 -- -- 43
2017-11-22 21:00:00 7.7 2 Sudeste 7 Sur 0 -- -- 41
2017-11-22 20:00:00 9 5 Sur 7 Sur 0 -- -- 38
2017-11-22 19:00:00 10.6 4 Sur 6 Sur 0 -- -- 34
2017-11-22 18:00:00 13.1 3 Sur 9 Sudoeste 0 -- -- 30
2017-11-22 17:00:00 16.1 5 Sudoeste 16 Sudoeste 0 -- -- 26
2017-11-22 16:00:00 17.5 8 Sudoeste 17 Sudoeste 0 -- -- 24
2017-11-22 15:00:00 17.5 6 Oeste 17 Oeste 0 -- -- 25
2017-11-22 14:00:00 16.7 7 Oeste 14 Sudoeste 0 -- -- 27
2017-11-22 13:00:00 14.9 5 Oeste 12 Oeste 0 -- -- 30
2017-11-22 12:00:00 10.6 0 Calma 5 Noroeste 0 -- -- 42
2017-11-22 11:00:00 7.6 4 Norte 10 Norte 0 -- -- 51
2017-11-22 10:00:00 2.5 4 Nordeste 8 Nordeste 0 -- -- 66
2017-11-22 09:00:00 -1.3 0 Calma 4 Nordeste 0 -- -- 72
2017-11-22 08:00:00 -1.7 2 Norte 4 Norte 0 -- -- 71
2017-11-22 07:00:00 -1.4 0 Calma 2 Sudeste 0 -- -- 67
2017-11-22 06:00:00 -1 0 Calma 2 Nordeste 0 -- -- 67
2017-11-22 05:00:00 -0.7 0 Calma 4 Norte 0 -- -- 64
2017-11-22 04:00:00 0 3 Norte 7 Nordeste 0 -- -- 63
2017-11-22 03:00:00 0 0 Calma 5 Norte 0 -- -- 61
2017-11-22 02:00:00 0.5 2 Nordeste 3 Nordeste 0 -- -- 63
2017-11-22 01:00:00 1.1 0 Calma 2 Sur 0 -- -- 60
2017-11-22 00:00:00 1.9 0 Calma 2 Norte 0 -- -- 54
2017-11-21 23:00:00 3.1 2 Sur 3 Sur 0 -- -- 53
2017-11-21 22:00:00 4.3 0 Calma 2 Sur 0 -- -- 50
2017-11-21 21:00:00 5.7 0 Calma 3 Sur 0 -- -- 47
2017-11-21 20:00:00 7.7 0 Calma 3 Nordeste 0 -- -- 43
2017-11-21 19:00:00 10.3 2 Nordeste 3 Este 0 -- -- 39
2017-11-21 18:00:00 13.9 2 Norte 13 Noroeste 0 -- -- 35
2017-11-21 17:00:00 16.2 5 Noroeste 13 Noroeste 0 -- -- 29
2017-11-21 16:00:00 17.2 6 Oeste 15 Noroeste 0 -- -- 27
2017-11-21 15:00:00 17.3 6 Oeste 13 Noroeste 0 -- -- 27
2017-11-21 14:00:00 16.4 3 Este 10 Nordeste 0 -- -- 32
2017-11-21 13:00:00 14 4 Norte 9 Norte 0 -- -- 37
2017-11-21 12:00:00 11.3 6 Norte 13 Norte 0 -- -- 41
2017-11-21 11:00:00 7.9 7 Nordeste 12 Norte 0 -- -- 48
2017-11-21 10:00:00 4 4 Norte 13 Norte 0 -- -- 57
2017-11-21 09:00:00 -0.9 2 Norte 4 Norte 0 -- -- 70
2017-11-21 08:00:00 -1.7 0 Calma 5 Norte 0 -- -- 67
2017-11-21 07:00:00 -1.4 4 Norte 8 Norte 0 -- -- 66
2017-11-21 06:00:00 -1.4 0 Calma 3 Noroeste 0 -- -- 64
2017-11-21 05:00:00 -0.8 0 Calma 5 Norte 0 -- -- 63
2017-11-21 04:00:00 -0.5 0 Calma 3 Nordeste 0 -- -- 60
2017-11-21 03:00:00 0.2 0 Calma 0 Calma 0 -- -- 58
2017-11-21 02:00:00 0.6 0 Calma 6 Nordeste 0 -- -- 54
2017-11-21 01:00:00 1.1 0 Calma 4 Norte 0 -- -- 54
2017-11-21 00:00:00 2.4 0 Calma -- -- 0 -- -- 52
2017-11-20 23:00:00 3.4 0 Calma -- -- 0 -- -- 50
2017-11-20 22:00:00 4.7 0 Calma 3 Norte 0 -- -- 48
2017-11-20 21:00:00 6.1 0 Calma 2 Sur 0 -- -- 45
2017-11-20 20:00:00 8 0 Calma 3 Este 0 -- -- 42
2017-11-20 19:00:00 10.4 0 Calma 2 Noroeste 0 -- -- 37
2017-11-20 18:00:00 13.9 0 Calma 10 Noroeste 0 -- -- 33
2017-11-20 17:00:00 15.6 7 Noroeste 15 Noroeste 0 -- -- 30
2017-11-20 16:00:00 16.5 8 Noroeste 15 Noroeste 0 -- -- 27
2017-11-20 15:00:00 16.4 6 Oeste 16 Noroeste 0 -- -- 30
2017-11-20 14:00:00 15.7 6 Noroeste 16 Noroeste 0 -- -- 31
2017-11-20 13:00:00 14.1 5 Noroeste 12 Noroeste 0 -- -- 36
2017-11-20 12:00:00 11.1 4 Nordeste 12 Norte 0 -- -- 41
2017-11-20 11:00:00 7.6 3 Norte 8 Norte 0 -- -- 49
2017-11-20 10:00:00 1.8 0 Calma 3 Sur 0 -- -- 62
2017-11-20 09:00:00 -1.2 0 Calma 4 Norte 0 -- -- 70
2017-11-20 08:00:00 -1 0 Calma 3 Norte 0 -- -- 65
2017-11-20 07:00:00 -0.5 0 Calma 5 Norte 0 -- -- 63
2017-11-20 06:00:00 0.6 5 Nordeste 8 Nordeste 0 -- -- 63
2017-11-20 05:00:00 -0.4 0 Calma 4 Norte 0 -- -- 65
2017-11-20 04:00:00 0 2 Nordeste 7 Norte 0 -- -- 63
2017-11-20 03:00:00 0.4 0 Calma 4 Norte 0 -- -- 60
2017-11-20 02:00:00 1 2 Norte 4 Norte 0 -- -- 58
2017-11-20 01:00:00 1.8 0 Calma 2 Sur 0 -- -- 52
2017-11-20 00:00:00 2.7 0 Calma 2 Sur 0 -- -- 51
2017-11-19 23:00:00 3.8 0 Calma 4 Norte 0 -- -- 49
2017-11-19 22:00:00 5.6 2 Norte 4 Norte 0 -- -- 47
2017-11-19 21:00:00 6.7 0 Calma 3 Sur 0 -- -- 45
2017-11-19 20:00:00 8.4 0 Calma 2 Oeste 0 -- -- 41
2017-11-19 19:00:00 11 0 Calma 4 Este 0 -- -- 36
2017-11-19 18:00:00 14.3 2 Norte 13 Noroeste 0 -- -- 32
2017-11-19 17:00:00 16.6 5 Noroeste 12 Noroeste 0 -- -- 29
2017-11-19 16:00:00 18.3 6 Norte 21 Norte 0 -- -- 26
2017-11-19 15:00:00 17.6 5 Nordeste 15 Nordeste 0 -- -- 23
2017-11-19 14:00:00 16.1 8 Nordeste 15 Nordeste 0 -- -- 31
2017-11-19 13:00:00 14.1 9 Nordeste 15 Nordeste 0 -- -- 37
2017-11-19 12:00:00 11.6 6 Nordeste 14 Nordeste 0 -- -- 46
2017-11-19 11:00:00 8.8 10 Nordeste 16 Norte 0 -- -- 49
2017-11-19 10:00:00 5.1 0 Calma 7 Nordeste 0 -- -- 62
2017-11-19 09:00:00 3.1 6 Nordeste 17 Nordeste 0 -- -- 65
2017-11-19 08:00:00 2.8 11 Nordeste 19 Nordeste 0 -- -- 65
2017-11-19 07:00:00 3.1 10 Nordeste 19 Nordeste 0 -- -- 65
2017-11-19 06:00:00 3.1 10 Nordeste 16 Nordeste 0 -- -- 65
2017-11-19 05:00:00 2.7 5 Nordeste 7 Este 0 -- -- 63
2017-11-19 04:00:00 3.8 2 Este 10 Este 0 -- -- 58
2017-11-19 03:00:00 4.9 5 Este 13 Este 0 -- -- 57
2017-11-19 02:00:00 5.8 4 Este 12 Este 0 -- -- 53
2017-11-19 01:00:00 5.5 9 Este 12 Nordeste 0 -- -- 53
2017-11-19 00:00:00 7.5 0 Calma 14 Nordeste 0 -- -- 48
2017-11-18 23:00:00 8.3 10 Nordeste 15 Nordeste 0 -- -- 48
2017-11-18 22:00:00 6.6 0 Calma 4 Nordeste 0 -- -- 48
2017-11-18 21:00:00 8.2 0 Calma 8 Este 0 -- -- 45
2017-11-18 20:00:00 9.9 0 Calma 6 Norte 0 -- -- 41
2017-11-18 19:00:00 12.1 4 Nordeste 6 Nordeste 0 -- -- 37
2017-11-18 18:00:00 15.1 5 Norte 14 Nordeste 0 -- -- 33
2017-11-18 17:00:00 17 10 Nordeste 21 Norte 0 -- -- 30
2017-11-18 16:00:00 18.9 9 Nordeste 17 Nordeste 0 -- -- 29
2017-11-18 15:00:00 18.4 9 Nordeste 19 Este 0 -- -- 29
2017-11-18 14:00:00 17.1 9 Nordeste 17 Nordeste 0 -- -- 32
2017-11-18 13:00:00 15.1 8 Nordeste 19 Nordeste 0 -- -- 35
2017-11-18 12:00:00 12.3 13 Nordeste 19 Nordeste 0 -- -- 40
2017-11-18 11:00:00 10.6 13 Nordeste 19 Nordeste 0 -- -- 43
2017-11-18 10:00:00 7.7 12 Nordeste 19 Nordeste 0 -- -- 51
2017-11-18 09:00:00 4.4 5 Norte 16 Nordeste 0 -- -- 59
2017-11-18 08:00:00 4.3 10 Nordeste 16 Norte 0 -- -- 58
2017-11-18 07:00:00 4.6 6 Nordeste 19 Nordeste 0 -- -- 57
2017-11-18 06:00:00 4.2 10 Nordeste 14 Nordeste 0 -- -- 58
2017-11-18 05:00:00 5 10 Nordeste 15 Nordeste 0 -- -- 57
2017-11-18 04:00:00 4.4 10 Nordeste 15 Nordeste 0 -- -- 61
2017-11-18 03:00:00 2.6 0 Calma 2 Nordeste 0 -- -- 60
2017-11-18 02:00:00 3.3 0 Calma 0 Calma 0 -- -- 58
2017-11-18 01:00:00 3.7 0 Calma 3 Norte 0 -- -- 57
2017-11-18 00:00:00 4.9 2 Este 4 Nordeste 0 -- -- 55
2017-11-17 23:00:00 5.8 0 Calma 4 Sur 0 -- -- 54
2017-11-17 22:00:00 7 0 Calma 6 Sur 0 -- -- 50
2017-11-17 21:00:00 8.3 2 Sur 3 Sur 0 -- -- 49
2017-11-17 20:00:00 10.3 0 Calma 5 Noroeste 0 -- -- 45
2017-11-17 19:00:00 12.5 3 Noroeste 6 Noroeste 0 -- -- 41
2017-11-17 18:00:00 14.6 2 Noroeste 14 Noroeste 0 -- -- 37
2017-11-17 17:00:00 16.7 5 Noroeste 18 Noroeste 0 -- -- 33
2017-11-17 16:00:00 18.8 6 Norte 18 Nordeste 0 -- -- 29
2017-11-17 15:00:00 18.2 12 Nordeste 26 Nordeste 0 -- -- 26
2017-11-17 14:00:00 17.1 16 Nordeste 28 Nordeste 0 -- -- 29
2017-11-17 13:00:00 15.5 17 Nordeste 25 Nordeste 0 -- -- 32
2017-11-17 12:00:00 13.4 13 Nordeste 22 Nordeste 0 -- -- 36
2017-11-17 11:00:00 10.4 11 Nordeste 18 Nordeste 0 -- -- 43
2017-11-17 10:00:00 6.7 10 Nordeste 16 Nordeste 0 -- -- 53
2017-11-17 09:00:00 4.2 10 Nordeste 14 Nordeste 0 -- -- 58
2017-11-17 08:00:00 3.9 9 Nordeste 16 Este 0 -- -- 58
2017-11-17 07:00:00 4.7 9 Nordeste 15 Nordeste 0 -- -- 57
2017-11-17 06:00:00 4.2 8 Este 16 Nordeste 0 -- -- 58
2017-11-17 05:00:00 3.6 8 Nordeste 12 Nordeste 0 -- -- 59
2017-11-17 04:00:00 4.9 0 Calma 8 Este 0 -- -- 54
2017-11-17 03:00:00 6.4 0 Calma 17 Nordeste 0 -- -- 51
2017-11-17 02:00:00 7.6 12 Nordeste 18 Norte 0 -- -- 48
2017-11-17 01:00:00 6 8 Nordeste 13 Nordeste 0 -- -- 52
2017-11-17 00:00:00 4 0 Calma 4 Norte 0 -- -- 52
2017-11-16 23:00:00 5.4 0 Calma 3 Noroeste 0 -- -- 52
2017-11-16 22:00:00 6.8 0 Calma 2 Norte 0 -- -- 51
2017-11-16 21:00:00 8.3 0 Calma 3 Sudeste 0 -- -- 48
2017-11-16 20:00:00 10.2 2 Sur 8 Oeste 0 -- -- 44
2017-11-16 19:00:00 12.2 2 Oeste 12 Noroeste 0 -- -- 39
2017-11-16 18:00:00 14.7 3 Noroeste 13 Norte 0 -- -- 34
2017-11-16 17:00:00 17.6 10 Norte 22 Norte 0 -- -- 27
2017-11-16 16:00:00 18.5 11 Nordeste 22 Nordeste 0 -- -- 26
2017-11-16 15:00:00 18 11 Norte 21 Nordeste 0 -- -- 27
2017-11-16 14:00:00 16.4 12 Nordeste 20 Nordeste 0 -- -- 28
2017-11-16 13:00:00 14 10 Nordeste 18 Norte 0 -- -- 34
2017-11-16 12:00:00 10.9 8 Norte 15 Nordeste 0 -- -- 40
2017-11-16 11:00:00 7.8 8 Nordeste 13 Nordeste 0 -- -- 49
2017-11-16 10:00:00 3.8 5 Norte 13 Norte 0 -- -- 59
2017-11-16 09:00:00 0.2 3 Norte 7 Norte 0 -- -- 67
2017-11-16 08:00:00 -0.4 2 Norte 8 Norte 0 -- -- 66
2017-11-16 07:00:00 0.1 0 Calma 10 Nordeste 0 -- -- 64
2017-11-16 06:00:00 -0.7 3 Norte 8 Norte 0 -- -- 62
2017-11-16 05:00:00 0.4 0 Calma 8 Nordeste 0 -- -- 60
2017-11-16 04:00:00 0.5 7 Nordeste 10 Norte 0 -- -- 61
2017-11-16 03:00:00 0.3 0 Calma 3 Norte 0 -- -- 57
2017-11-16 02:00:00 0.5 0 Calma 2 Sur 0 -- -- 55
2017-11-16 01:00:00 1 0 Calma 2 Noroeste 0 -- -- 54
2017-11-16 00:00:00 1.6 0 Calma 4 Nordeste 0 -- -- 49
2017-11-15 23:00:00 3.2 0 Calma 3 Norte 0 -- -- 48
2017-11-15 22:00:00 4.8 0 Calma 3 Sur 0 -- -- 46
2017-11-15 21:00:00 5.8 0 Calma 2 Sur 0 -- -- 44
2017-11-15 20:00:00 7.6 0 Calma 5 Noroeste 0 -- -- 40
2017-11-15 19:00:00 9.6 0 Calma 7 Noroeste 0 -- -- 36
2017-11-15 18:00:00 11.6 2 Oeste 13 Noroeste 0 -- -- 33
2017-11-15 17:00:00 13.4 6 Noroeste 20 Oeste 0 -- -- 29
2017-11-15 16:00:00 14.4 7 Noroeste 23 Noroeste 0 -- -- 27
2017-11-15 15:00:00 13.8 13 Noroeste 21 Noroeste 0 -- -- 27
2017-11-15 14:00:00 14 3 Noroeste 12 Oeste 0 -- -- 28
2017-11-15 13:00:00 11.8 3 Oeste 8 Sudoeste 0 -- -- 30
2017-11-15 12:00:00 9.2 3 Nordeste 13 Norte 0 -- -- 33
2017-11-15 11:00:00 6.7 8 Nordeste 13 Nordeste 0 -- -- 40
2017-11-15 10:00:00 3.9 7 Nordeste 13 Nordeste 0 -- -- 46
2017-11-15 09:00:00 -1.1 3 Norte 8 Norte 0 -- -- 59
2017-11-15 08:00:00 -1.7 0 Calma 7 Nordeste 0 -- -- 55
2017-11-15 07:00:00 0.4 6 Nordeste 9 Nordeste 0 -- -- 49
2017-11-15 06:00:00 0 4 Nordeste 8 Este 0 -- -- 51
2017-11-15 05:00:00 0 2 Nordeste 5 Este 0 -- -- 50
2017-11-15 04:00:00 0.3 0 Calma 5 Este 0 -- -- 51
2017-11-15 03:00:00 0.7 3 Nordeste 8 Este 0 -- -- 48
2017-11-15 02:00:00 1.6 3 Sur 15 Este 0 -- -- 47
2017-11-15 01:00:00 2.6 3 Sudeste 10 Sudeste 0 -- -- 44
2017-11-15 00:00:00 3.7 6 Este 11 Este 0 -- -- 42